sensor_id;sensor_type;location;lat;lon;timestamp;pressure;altitude;pressure_sealevel;temperature;humidity
69219;BME280;56232;53.384;-2.732;2023-05-12T00:02:02;101838.47;;;12.46;32.65
69219;BME280;56232;53.384;-2.732;2023-05-12T00:04:27;101842.48;;;12.34;32.84
69219;BME280;56232;53.384;-2.732;2023-05-12T00:06:53;101844.10;;;11.81;32.98
69219;BME280;56232;53.384;-2.732;2023-05-12T00:09:19;101848.57;;;12.29;32.82
69219;BME280;56232;53.384;-2.732;2023-05-12T00:11:44;101850.80;;;12.17;33.31
69219;BME280;56232;53.384;-2.732;2023-05-12T00:14:09;101849.61;;;12.15;32.97
69219;BME280;56232;53.384;-2.732;2023-05-12T00:16:35;101852.11;;;12.18;32.69
69219;BME280;56232;53.384;-2.732;2023-05-12T00:19:01;101853.90;;;12.11;32.95
69219;BME280;56232;53.384;-2.732;2023-05-12T00:21:26;101852.07;;;11.99;32.92
69219;BME280;56232;53.384;-2.732;2023-05-12T00:23:52;101855.44;;;13.00;32.76
69219;BME280;56232;53.384;-2.732;2023-05-12T00:26:17;101862.55;;;11.70;32.99
69219;BME280;56232;53.384;-2.732;2023-05-12T00:28:43;101866.90;;;11.69;32.91
69219;BME280;56232;53.384;-2.732;2023-05-12T00:31:09;101868.19;;;11.52;33.96
69219;BME280;56232;53.384;-2.732;2023-05-12T00:33:34;101868.18;;;11.48;34.05
69219;BME280;56232;53.384;-2.732;2023-05-12T00:36:00;101870.27;;;11.41;33.87
69219;BME280;56232;53.384;-2.732;2023-05-12T00:38:26;101874.65;;;11.20;34.35
69219;BME280;56232;53.384;-2.732;2023-05-12T00:40:51;101875.98;;;12.17;34.67
69219;BME280;56232;53.384;-2.732;2023-05-12T00:43:17;101874.34;;;11.64;34.32
69219;BME280;56232;53.384;-2.732;2023-05-12T00:45:42;101876.80;;;11.76;33.76
69219;BME280;56232;53.384;-2.732;2023-05-12T00:48:07;101877.91;;;11.15;33.86
69219;BME280;56232;53.384;-2.732;2023-05-12T00:50:33;101882.53;;;12.15;34.41
69219;BME280;56232;53.384;-2.732;2023-05-12T00:52:59;101882.74;;;12.05;34.70
69219;BME280;56232;53.384;-2.732;2023-05-12T00:55:24;101884.25;;;11.51;34.59
69219;BME280;56232;53.384;-2.732;2023-05-12T00:57:49;101888.62;;;12.04;33.94
69219;BME280;56232;53.384;-2.732;2023-05-12T01:00:14;101889.24;;;11.48;34.66
69219;BME280;56232;53.384;-2.732;2023-05-12T01:02:39;101891.00;;;11.88;34.77
69219;BME280;56232;53.384;-2.732;2023-05-12T01:05:05;101896.43;;;12.01;34.14
69219;BME280;56232;53.384;-2.732;2023-05-12T01:07:31;101899.24;;;12.14;33.84
69219;BME280;56232;53.384;-2.732;2023-05-12T01:09:56;101904.57;;;11.57;33.37
69219;BME280;56232;53.384;-2.732;2023-05-12T01:12:22;101904.20;;;11.56;33.83
69219;BME280;56232;53.384;-2.732;2023-05-12T01:14:47;101905.97;;;12.09;33.29
69219;BME280;56232;53.384;-2.732;2023-05-12T01:17:25;101911.32;;;11.50;33.10
69219;BME280;56232;53.384;-2.732;2023-05-12T01:19:40;101912.45;;;11.90;33.38
69219;BME280;56232;53.384;-2.732;2023-05-12T01:22:04;101917.65;;;10.71;33.65
69219;BME280;56232;53.384;-2.732;2023-05-12T01:24:30;101917.03;;;11.30;33.53
69219;BME280;56232;53.384;-2.732;2023-05-12T01:26:55;101917.40;;;11.91;33.41
69219;BME280;56232;53.384;-2.732;2023-05-12T01:29:22;101915.36;;;11.92;32.95
69219;BME280;56232;53.384;-2.732;2023-05-12T01:31:46;101918.23;;;11.89;32.90
69219;BME280;56232;53.384;-2.732;2023-05-12T01:34:14;101921.61;;;11.90;32.76
69219;BME280;56232;53.384;-2.732;2023-05-12T01:36:37;101922.86;;;11.80;32.84
69219;BME280;56232;53.384;-2.732;2023-05-12T01:39:02;101924.44;;;11.24;32.85
69219;BME280;56232;53.384;-2.732;2023-05-12T01:41:27;101924.65;;;11.68;32.89
69219;BME280;56232;53.384;-2.732;2023-05-12T01:43:53;101927.50;;;11.71;33.19
69219;BME280;56232;53.384;-2.732;2023-05-12T01:46:18;101928.13;;;11.23;33.08
69219;BME280;56232;53.384;-2.732;2023-05-12T01:48:44;101928.53;;;11.73;32.60
69219;BME280;56232;53.384;-2.732;2023-05-12T01:51:09;101928.89;;;11.16;32.86
69219;BME280;56232;53.384;-2.732;2023-05-12T01:53:34;101929.92;;;11.10;32.57
69219;BME280;56232;53.384;-2.732;2023-05-12T01:56:00;101929.71;;;11.33;33.85
69219;BME280;56232;53.384;-2.732;2023-05-12T01:58:25;101932.81;;;11.19;33.32
69219;BME280;56232;53.384;-2.732;2023-05-12T02:00:51;101935.60;;;12.07;35.50
69219;BME280;56232;53.384;-2.732;2023-05-12T02:03:16;101942.41;;;11.35;34.84
69219;BME280;56232;53.384;-2.732;2023-05-12T02:05:42;101945.01;;;10.83;34.54
69219;BME280;56232;53.384;-2.732;2023-05-12T02:08:08;101946.84;;;10.77;34.79
69219;BME280;56232;53.384;-2.732;2023-05-12T02:10:34;101945.73;;;10.78;35.06
69219;BME280;56232;53.384;-2.732;2023-05-12T02:12:59;101945.60;;;10.75;34.90
69219;BME280;56232;53.384;-2.732;2023-05-12T02:15:24;101945.87;;;10.75;34.78
69219;BME280;56232;53.384;-2.732;2023-05-12T02:17:50;101944.19;;;11.30;34.24
69219;BME280;56232;53.384;-2.732;2023-05-12T02:20:15;101946.64;;;10.78;34.06
69219;BME280;56232;53.384;-2.732;2023-05-12T02:22:41;101950.21;;;10.82;34.00
69219;BME280;56232;53.384;-2.732;2023-05-12T02:25:06;101953.84;;;11.33;34.15
69219;BME280;56232;53.384;-2.732;2023-05-12T02:27:31;101956.81;;;10.77;34.14
69219;BME280;56232;53.384;-2.732;2023-05-12T02:29:57;101958.36;;;10.70;34.52
69219;BME280;56232;53.384;-2.732;2023-05-12T02:32:27;101963.14;;;10.58;34.12
69219;BME280;56232;53.384;-2.732;2023-05-12T02:34:47;101968.49;;;10.58;34.16
69219;BME280;56232;53.384;-2.732;2023-05-12T02:37:13;101969.05;;;11.21;33.90
69219;BME280;56232;53.384;-2.732;2023-05-12T02:39:38;101971.02;;;10.77;33.57
69219;BME280;56232;53.384;-2.732;2023-05-12T02:42:05;101976.24;;;10.68;33.16
69219;BME280;56232;53.384;-2.732;2023-05-12T02:44:29;101978.37;;;10.62;33.30
69219;BME280;56232;53.384;-2.732;2023-05-12T02:46:54;101980.54;;;10.50;33.52
69219;BME280;56232;53.384;-2.732;2023-05-12T02:49:21;101984.11;;;10.54;33.52
69219;BME280;56232;53.384;-2.732;2023-05-12T02:51:45;101986.45;;;10.45;33.26
69219;BME280;56232;53.384;-2.732;2023-05-12T02:54:11;101985.31;;;10.86;33.64
69219;BME280;56232;53.384;-2.732;2023-05-12T02:56:36;101983.39;;;10.87;33.73
69219;BME280;56232;53.384;-2.732;2023-05-12T02:59:01;101986.91;;;10.88;34.31
69219;BME280;56232;53.384;-2.732;2023-05-12T03:01:27;101983.54;;;10.77;33.99
69219;BME280;56232;53.384;-2.732;2023-05-12T03:03:52;101985.18;;;10.76;33.03
69219;BME280;56232;53.384;-2.732;2023-05-12T03:06:18;101993.03;;;10.60;33.12
69219;BME280;56232;53.384;-2.732;2023-05-12T03:08:43;101993.70;;;11.03;33.45
69219;BME280;56232;53.384;-2.732;2023-05-12T03:11:09;101994.28;;;10.31;34.39
69219;BME280;56232;53.384;-2.732;2023-05-12T03:13:34;101988.51;;;10.81;34.08
69219;BME280;56232;53.384;-2.732;2023-05-12T03:15:59;101984.29;;;9.96;34.89
69219;BME280;56232;53.384;-2.732;2023-05-12T03:18:25;101983.33;;;9.92;34.72
69219;BME280;56232;53.384;-2.732;2023-05-12T03:20:51;101984.85;;;10.55;35.25
69219;BME280;56232;53.384;-2.732;2023-05-12T03:23:16;101985.78;;;10.50;34.83
69219;BME280;56232;53.384;-2.732;2023-05-12T03:25:41;101986.30;;;9.92;34.63
69219;BME280;56232;53.384;-2.732;2023-05-12T03:28:07;101987.74;;;10.57;34.15
69219;BME280;56232;53.384;-2.732;2023-05-12T03:30:32;101985.79;;;10.44;34.16
69219;BME280;56232;53.384;-2.732;2023-05-12T03:32:58;101987.55;;;10.46;34.25
69219;BME280;56232;53.384;-2.732;2023-05-12T03:35:24;101990.42;;;10.44;34.17
69219;BME280;56232;53.384;-2.732;2023-05-12T03:37:49;101996.87;;;10.31;34.20
69219;BME280;56232;53.384;-2.732;2023-05-12T03:40:15;102005.38;;;10.19;34.11
69219;BME280;56232;53.384;-2.732;2023-05-12T03:42:40;102007.68;;;9.67;33.85
69219;BME280;56232;53.384;-2.732;2023-05-12T03:45:07;102012.23;;;9.73;33.53
69219;BME280;56232;53.384;-2.732;2023-05-12T03:47:31;102016.64;;;9.26;34.21
69219;BME280;56232;53.384;-2.732;2023-05-12T03:49:57;102015.46;;;9.79;33.87
69219;BME280;56232;53.384;-2.732;2023-05-12T03:52:23;102015.03;;;10.32;33.36
69219;BME280;56232;53.384;-2.732;2023-05-12T03:54:48;102017.65;;;10.35;33.28
69219;BME280;56232;53.384;-2.732;2023-05-12T03:57:14;102016.04;;;10.38;33.60
69219;BME280;56232;53.384;-2.732;2023-05-12T03:59:39;102015.15;;;10.52;33.20
69219;BME280;56232;53.384;-2.732;2023-05-12T04:02:04;102017.65;;;10.71;33.15
69219;BME280;56232;53.384;-2.732;2023-05-12T04:04:29;102023.71;;;10.98;32.90
69219;BME280;56232;53.384;-2.732;2023-05-12T04:06:55;102028.62;;;10.28;32.61
69219;BME280;56232;53.384;-2.732;2023-05-12T04:09:21;102035.87;;;11.13;32.56
69219;BME280;56232;53.384;-2.732;2023-05-12T04:11:46;102036.65;;;10.92;32.13
69219;BME280;56232;53.384;-2.732;2023-05-12T04:14:11;102039.11;;;11.72;32.06
69219;BME280;56232;53.384;-2.732;2023-05-12T04:16:37;102041.57;;;11.47;32.02
69219;BME280;56232;53.384;-2.732;2023-05-12T04:19:03;102044.55;;;11.62;32.64
69219;BME280;56232;53.384;-2.732;2023-05-12T04:21:28;102048.65;;;11.70;32.64
69219;BME280;56232;53.384;-2.732;2023-05-12T04:23:54;102052.65;;;10.89;32.63
69219;BME280;56232;53.384;-2.732;2023-05-12T04:26:20;102053.95;;;12.18;32.42
69219;BME280;56232;53.384;-2.732;2023-05-12T04:28:45;102056.59;;;12.36;32.42
69219;BME280;56232;53.384;-2.732;2023-05-12T04:31:11;102058.97;;;12.53;32.28
69219;BME280;56232;53.384;-2.732;2023-05-12T04:33:36;102060.96;;;12.46;32.14
69219;BME280;56232;53.384;-2.732;2023-05-12T04:36:02;102062.73;;;12.40;32.47
69219;BME280;56232;53.384;-2.732;2023-05-12T04:38:27;102063.86;;;11.94;32.56
69219;BME280;56232;53.384;-2.732;2023-05-12T04:40:57;102070.00;;;11.45;32.41
69219;BME280;56232;53.384;-2.732;2023-05-12T04:43:18;102068.61;;;12.10;32.25
69219;BME280;56232;53.384;-2.732;2023-05-12T04:45:43;102069.40;;;11.45;32.87
69219;BME280;56232;53.384;-2.732;2023-05-12T04:48:08;102070.04;;;11.61;31.96
69219;BME280;56232;53.384;-2.732;2023-05-12T04:50:34;102075.94;;;11.62;33.08
69219;BME280;56232;53.384;-2.732;2023-05-12T04:52:59;102077.95;;;12.87;32.99
69219;BME280;56232;53.384;-2.732;2023-05-12T04:55:25;102088.27;;;12.08;33.42
69219;BME280;56232;53.384;-2.732;2023-05-12T04:57:50;102089.86;;;12.36;32.49
69219;BME280;56232;53.384;-2.732;2023-05-12T05:00:16;102096.65;;;12.51;32.59
69219;BME280;56232;53.384;-2.732;2023-05-12T05:02:42;102098.51;;;12.60;32.39
69219;BME280;56232;53.384;-2.732;2023-05-12T05:05:08;102099.56;;;12.39;32.63
69219;BME280;56232;53.384;-2.732;2023-05-12T05:07:32;102100.22;;;13.17;32.53
69219;BME280;56232;53.384;-2.732;2023-05-12T05:09:58;102101.51;;;12.38;32.84
69219;BME280;56232;53.384;-2.732;2023-05-12T05:12:23;102101.90;;;13.07;33.33
69219;BME280;56232;53.384;-2.732;2023-05-12T05:14:49;102105.73;;;13.37;33.05
69219;BME280;56232;53.384;-2.732;2023-05-12T05:17:15;102110.00;;;13.10;32.62
69219;BME280;56232;53.384;-2.732;2023-05-12T05:19:40;102112.40;;;13.21;32.00
69219;BME280;56232;53.384;-2.732;2023-05-12T05:22:06;102118.70;;;13.78;30.54
69219;BME280;56232;53.384;-2.732;2023-05-12T05:24:31;102118.67;;;14.12;31.39
69219;BME280;56232;53.384;-2.732;2023-05-12T05:26:57;102121.34;;;14.20;31.41
69219;BME280;56232;53.384;-2.732;2023-05-12T05:29:22;102122.73;;;13.55;31.53
69219;BME280;56232;53.384;-2.732;2023-05-12T05:31:47;102125.49;;;13.90;32.34
69219;BME280;56232;53.384;-2.732;2023-05-12T05:34:13;102128.26;;;14.18;32.31
69219;BME280;56232;53.384;-2.732;2023-05-12T05:36:38;102127.70;;;14.26;32.23
69219;BME280;56232;53.384;-2.732;2023-05-12T05:39:04;102129.60;;;14.44;31.80
69219;BME280;56232;53.384;-2.732;2023-05-12T05:41:29;102134.84;;;14.46;31.41
69219;BME280;56232;53.384;-2.732;2023-05-12T05:43:54;102137.42;;;14.25;32.24
69219;BME280;56232;53.384;-2.732;2023-05-12T05:46:21;102143.54;;;14.09;31.70
69219;BME280;56232;53.384;-2.732;2023-05-12T05:48:45;102148.41;;;14.03;32.57
69219;BME280;56232;53.384;-2.732;2023-05-12T05:51:11;102149.62;;;14.03;32.39
69219;BME280;56232;53.384;-2.732;2023-05-12T05:53:36;102151.94;;;14.22;32.38
69219;BME280;56232;53.384;-2.732;2023-05-12T05:56:02;102158.91;;;13.95;31.75
69219;BME280;56232;53.384;-2.732;2023-05-12T05:58:28;102164.59;;;13.30;31.57
69219;BME280;56232;53.384;-2.732;2023-05-12T06:00:54;102169.83;;;13.74;32.49
69219;BME280;56232;53.384;-2.732;2023-05-12T06:03:19;102168.73;;;14.59;31.23
69219;BME280;56232;53.384;-2.732;2023-05-12T06:05:44;102169.09;;;14.89;30.76
69219;BME280;56232;53.384;-2.732;2023-05-12T06:08:10;102168.81;;;15.25;30.90
69219;BME280;56232;53.384;-2.732;2023-05-12T06:10:36;102174.14;;;14.57;30.89
69219;BME280;56232;53.384;-2.732;2023-05-12T06:13:01;102177.18;;;14.85;30.87
69219;BME280;56232;53.384;-2.732;2023-05-12T06:15:27;102178.00;;;14.79;31.23
69219;BME280;56232;53.384;-2.732;2023-05-12T06:17:52;102176.93;;;14.68;31.12
69219;BME280;56232;53.384;-2.732;2023-05-12T06:20:18;102176.91;;;14.31;30.48
69219;BME280;56232;53.384;-2.732;2023-05-12T06:22:44;102179.50;;;14.55;31.92
69219;BME280;56232;53.384;-2.732;2023-05-12T06:25:09;102180.03;;;14.19;30.57
69219;BME280;56232;53.384;-2.732;2023-05-12T06:27:35;102180.99;;;15.14;30.85
69219;BME280;56232;53.384;-2.732;2023-05-12T06:30:00;102179.31;;;13.92;31.05
69219;BME280;56232;53.384;-2.732;2023-05-12T06:32:25;102182.01;;;14.34;31.25
69219;BME280;56232;53.384;-2.732;2023-05-12T06:34:51;102189.56;;;14.29;31.37
69219;BME280;56232;53.384;-2.732;2023-05-12T06:37:16;102188.99;;;15.03;31.15
69219;BME280;56232;53.384;-2.732;2023-05-12T06:39:42;102193.47;;;14.17;31.73
69219;BME280;56232;53.384;-2.732;2023-05-12T06:42:07;102193.01;;;14.46;32.36
69219;BME280;56232;53.384;-2.732;2023-05-12T06:44:33;102195.92;;;14.03;31.81
69219;BME280;56232;53.384;-2.732;2023-05-12T06:46:58;102198.72;;;15.13;32.51
69219;BME280;56232;53.384;-2.732;2023-05-12T06:49:24;102202.39;;;14.50;31.62
69219;BME280;56232;53.384;-2.732;2023-05-12T06:51:49;102203.67;;;13.92;32.52
69219;BME280;56232;53.384;-2.732;2023-05-12T06:54:15;102207.50;;;13.90;32.76
69219;BME280;56232;53.384;-2.732;2023-05-12T06:56:40;102208.48;;;15.29;32.16
69219;BME280;56232;53.384;-2.732;2023-05-12T06:59:06;102211.32;;;15.21;30.91
69219;BME280;56232;53.384;-2.732;2023-05-12T07:01:32;102212.43;;;14.98;31.86
69219;BME280;56232;53.384;-2.732;2023-05-12T07:03:58;102213.77;;;14.95;32.10
69219;BME280;56232;53.384;-2.732;2023-05-12T07:06:23;102217.65;;;15.30;31.09
69219;BME280;56232;53.384;-2.732;2023-05-12T07:08:49;102216.58;;;15.17;31.68
69219;BME280;56232;53.384;-2.732;2023-05-12T07:11:14;102216.37;;;15.76;31.84
69219;BME280;56232;53.384;-2.732;2023-05-12T07:13:40;102213.09;;;15.06;31.90
69219;BME280;56232;53.384;-2.732;2023-05-12T07:16:06;102218.74;;;14.25;31.89
69219;BME280;56232;53.384;-2.732;2023-05-12T07:18:31;102216.40;;;15.00;31.98
69219;BME280;56232;53.384;-2.732;2023-05-12T07:20:57;102216.76;;;16.06;31.03
69219;BME280;56232;53.384;-2.732;2023-05-12T07:23:23;102218.55;;;16.07;30.92
69219;BME280;56232;53.384;-2.732;2023-05-12T07:25:48;102223.85;;;16.17;30.80
69219;BME280;56232;53.384;-2.732;2023-05-12T07:28:14;102226.02;;;16.19;30.75
69219;BME280;56232;53.384;-2.732;2023-05-12T07:30:39;102227.47;;;16.57;30.73
69219;BME280;56232;53.384;-2.732;2023-05-12T07:33:05;102231.55;;;16.53;30.57
69219;BME280;56232;53.384;-2.732;2023-05-12T07:35:31;102236.44;;;16.68;30.35
69219;BME280;56232;53.384;-2.732;2023-05-12T07:37:56;102240.61;;;16.60;29.69
69219;BME280;56232;53.384;-2.732;2023-05-12T07:40:23;102241.17;;;16.29;29.83
69219;BME280;56232;53.384;-2.732;2023-05-12T07:42:47;102244.02;;;15.89;30.00
69219;BME280;56232;53.384;-2.732;2023-05-12T07:45:13;102245.29;;;15.67;30.44
69219;BME280;56232;53.384;-2.732;2023-05-12T07:47:39;102248.26;;;15.96;30.60
69219;BME280;56232;53.384;-2.732;2023-05-12T07:50:05;102253.13;;;15.52;30.63
69219;BME280;56232;53.384;-2.732;2023-05-12T07:52:30;102254.87;;;15.48;30.28
69219;BME280;56232;53.384;-2.732;2023-05-12T07:54:56;102256.10;;;15.19;31.20
69219;BME280;56232;53.384;-2.732;2023-05-12T07:57:23;102258.40;;;15.62;30.71
69219;BME280;56232;53.384;-2.732;2023-05-12T07:59:47;102261.50;;;16.20;30.72
69219;BME280;56232;53.384;-2.732;2023-05-12T08:02:13;102263.79;;;15.15;31.09
69219;BME280;56232;53.384;-2.732;2023-05-12T08:04:38;102260.87;;;15.58;30.38
69219;BME280;56232;53.384;-2.732;2023-05-12T08:07:04;102263.65;;;16.63;30.17
69219;BME280;56232;53.384;-2.732;2023-05-12T08:09:30;102263.38;;;16.83;29.66
69219;BME280;56232;53.384;-2.732;2023-05-12T08:11:55;102259.74;;;17.28;29.57
69219;BME280;56232;53.384;-2.732;2023-05-12T08:14:22;102254.17;;;19.95;28.22
69219;BME280;56232;53.384;-2.732;2023-05-12T08:16:47;102255.21;;;20.24;27.35
69219;BME280;56232;53.384;-2.732;2023-05-12T08:19:12;102250.91;;;20.71;26.23
69219;BME280;56232;53.384;-2.732;2023-05-12T08:21:38;102250.07;;;21.85;25.64
69219;BME280;56232;53.384;-2.732;2023-05-12T08:24:04;102250.37;;;21.44;24.99
69219;BME280;56232;53.384;-2.732;2023-05-12T08:26:29;102253.63;;;21.33;25.13
69219;BME280;56232;53.384;-2.732;2023-05-12T08:28:55;102256.03;;;22.16;24.78
69219;BME280;56232;53.384;-2.732;2023-05-12T08:31:21;102261.22;;;25.27;22.72
69219;BME280;56232;53.384;-2.732;2023-05-12T08:33:46;102258.46;;;27.02;21.29
69219;BME280;56232;53.384;-2.732;2023-05-12T08:36:12;102256.11;;;28.62;19.74
69219;BME280;56232;53.384;-2.732;2023-05-12T08:38:37;102258.19;;;30.73;18.54
69219;BME280;56232;53.384;-2.732;2023-05-12T08:41:10;102260.55;;;31.20;17.65
69219;BME280;56232;53.384;-2.732;2023-05-12T08:43:35;102266.11;;;28.77;18.44
69219;BME280;56232;53.384;-2.732;2023-05-12T08:45:54;102267.29;;;26.79;19.17
69219;BME280;56232;53.384;-2.732;2023-05-12T08:48:20;102271.09;;;25.77;20.57
69219;BME280;56232;53.384;-2.732;2023-05-12T08:50:46;102268.58;;;25.96;21.21
69219;BME280;56232;53.384;-2.732;2023-05-12T08:53:10;102273.58;;;24.86;21.09
69219;BME280;56232;53.384;-2.732;2023-05-12T08:55:36;102275.25;;;24.28;21.74
69219;BME280;56232;53.384;-2.732;2023-05-12T08:58:02;102277.76;;;23.75;22.27
69219;BME280;56232;53.384;-2.732;2023-05-12T09:00:27;102279.39;;;24.27;22.60
69219;BME280;56232;53.384;-2.732;2023-05-12T09:02:53;102277.94;;;23.34;22.45
69219;BME280;56232;53.384;-2.732;2023-05-12T09:05:18;102281.78;;;23.73;22.71
69219;BME280;56232;53.384;-2.732;2023-05-12T09:07:44;102285.67;;;25.37;21.70
69219;BME280;56232;53.384;-2.732;2023-05-12T09:10:14;102280.88;;;25.93;20.54
69219;BME280;56232;53.384;-2.732;2023-05-12T09:12:36;102283.37;;;26.54;20.47
69219;BME280;56232;53.384;-2.732;2023-05-12T09:15:03;102283.87;;;25.75;20.17
69219;BME280;56232;53.384;-2.732;2023-05-12T09:17:26;102283.27;;;26.53;19.89
69219;BME280;56232;53.384;-2.732;2023-05-12T09:19:51;102286.44;;;27.21;19.74
69219;BME280;56232;53.384;-2.732;2023-05-12T09:22:17;102280.49;;;25.69;19.65
69219;BME280;56232;53.384;-2.732;2023-05-12T09:24:42;102283.47;;;25.58;20.49
69219;BME280;56232;53.384;-2.732;2023-05-12T09:27:08;102288.32;;;24.29;20.84
69219;BME280;56232;53.384;-2.732;2023-05-12T09:29:34;102290.13;;;23.84;21.34
69219;BME280;56232;53.384;-2.732;2023-05-12T09:32:01;102290.11;;;23.83;21.50
69219;BME280;56232;53.384;-2.732;2023-05-12T09:34:27;102284.21;;;24.77;20.85
69219;BME280;56232;53.384;-2.732;2023-05-12T09:36:54;102276.62;;;24.86;20.64
69219;BME280;56232;53.384;-2.732;2023-05-12T09:39:16;102278.42;;;25.57;20.70
69219;BME280;56232;53.384;-2.732;2023-05-12T09:41:42;102281.35;;;25.02;21.24
69219;BME280;56232;53.384;-2.732;2023-05-12T09:44:08;102279.90;;;24.36;21.33
69219;BME280;56232;53.384;-2.732;2023-05-12T09:46:32;102278.60;;;23.57;21.65
69219;BME280;56232;53.384;-2.732;2023-05-12T09:48:58;102278.52;;;22.88;22.09
69219;BME280;56232;53.384;-2.732;2023-05-12T09:51:25;102275.72;;;23.70;21.73
69219;BME280;56232;53.384;-2.732;2023-05-12T09:53:49;102272.83;;;24.53;21.56
69219;BME280;56232;53.384;-2.732;2023-05-12T09:56:16;102272.98;;;24.90;21.23
69219;BME280;56232;53.384;-2.732;2023-05-12T09:58:42;102273.32;;;25.08;21.11
69219;BME280;56232;53.384;-2.732;2023-05-12T10:01:07;102274.90;;;24.55;21.16
69219;BME280;56232;53.384;-2.732;2023-05-12T10:03:32;102269.06;;;25.19;20.28
69219;BME280;56232;53.384;-2.732;2023-05-12T10:06:00;102271.73;;;26.67;19.80
69219;BME280;56232;53.384;-2.732;2023-05-12T10:08:26;102267.19;;;27.99;18.46
69219;BME280;56232;53.384;-2.732;2023-05-12T10:10:50;102275.71;;;29.26;17.73
69219;BME280;56232;53.384;-2.732;2023-05-12T10:13:14;102270.98;;;30.45;16.57
69219;BME280;56232;53.384;-2.732;2023-05-12T10:15:40;102270.77;;;29.06;16.91
69219;BME280;56232;53.384;-2.732;2023-05-12T10:18:05;102271.00;;;28.43;17.78
69219;BME280;56232;53.384;-2.732;2023-05-12T10:20:31;102271.82;;;27.82;18.17
69219;BME280;56232;53.384;-2.732;2023-05-12T10:22:56;102274.98;;;28.08;17.84
69219;BME280;56232;53.384;-2.732;2023-05-12T10:25:22;102268.90;;;28.01;17.82
69219;BME280;56232;53.384;-2.732;2023-05-12T10:27:47;102265.91;;;27.13;18.22
69219;BME280;56232;53.384;-2.732;2023-05-12T10:30:13;102268.64;;;27.63;17.64
69219;BME280;56232;53.384;-2.732;2023-05-12T10:32:38;102274.17;;;28.60;17.58
69219;BME280;56232;53.384;-2.732;2023-05-12T10:35:07;102272.02;;;27.89;17.29
69219;BME280;56232;53.384;-2.732;2023-05-12T10:37:29;102271.98;;;27.46;17.40
69219;BME280;56232;53.384;-2.732;2023-05-12T10:39:55;102278.27;;;28.56;17.14
69219;BME280;56232;53.384;-2.732;2023-05-12T10:42:22;102282.80;;;27.65;17.65
69219;BME280;56232;53.384;-2.732;2023-05-12T10:44:49;102285.23;;;25.95;18.74
69219;BME280;56232;53.384;-2.732;2023-05-12T10:47:12;102280.58;;;26.79;18.98
69219;BME280;56232;53.384;-2.732;2023-05-12T10:49:39;102285.35;;;27.73;18.70
69219;BME280;56232;53.384;-2.732;2023-05-12T10:52:02;102282.31;;;27.42;19.02
69219;BME280;56232;53.384;-2.732;2023-05-12T10:54:28;102284.34;;;26.48;19.68
69219;BME280;56232;53.384;-2.732;2023-05-12T10:56:57;102287.96;;;24.70;20.48
69219;BME280;56232;53.384;-2.732;2023-05-12T10:59:20;102288.56;;;24.20;21.11
69219;BME280;56232;53.384;-2.732;2023-05-12T11:04:11;102288.98;;;22.99;22.41
69219;BME280;56232;53.384;-2.732;2023-05-12T11:06:41;102288.14;;;24.21;22.60
69219;BME280;56232;53.384;-2.732;2023-05-12T11:09:01;102291.73;;;23.24;22.88
69219;BME280;56232;53.384;-2.732;2023-05-12T11:11:28;102283.32;;;23.97;22.94
69219;BME280;56232;53.384;-2.732;2023-05-12T11:13:52;102287.02;;;23.96;22.57
69219;BME280;56232;53.384;-2.732;2023-05-12T11:16:19;102291.48;;;24.49;22.61
69219;BME280;56232;53.384;-2.732;2023-05-12T11:18:43;102293.06;;;25.11;22.41
69219;BME280;56232;53.384;-2.732;2023-05-12T11:21:09;102293.79;;;24.44;22.54
69219;BME280;56232;53.384;-2.732;2023-05-12T11:23:34;102297.02;;;24.26;22.80
69219;BME280;56232;53.384;-2.732;2023-05-12T11:26:00;102295.77;;;24.32;22.70
69219;BME280;56232;53.384;-2.732;2023-05-12T11:28:25;102287.10;;;24.66;22.33
69219;BME280;56232;53.384;-2.732;2023-05-12T11:30:52;102293.63;;;25.56;22.30
69219;BME280;56232;53.384;-2.732;2023-05-12T11:33:19;102289.62;;;25.58;21.94
69219;BME280;56232;53.384;-2.732;2023-05-12T11:35:42;102295.61;;;25.49;21.59
69219;BME280;56232;53.384;-2.732;2023-05-12T11:38:14;102296.56;;;24.49;21.93
69219;BME280;56232;53.384;-2.732;2023-05-12T11:40:38;102295.25;;;23.83;22.44
69219;BME280;56232;53.384;-2.732;2023-05-12T11:43:08;102301.74;;;23.01;22.85
69219;BME280;56232;53.384;-2.732;2023-05-12T11:45:26;102306.71;;;23.81;22.83
69219;BME280;56232;53.384;-2.732;2023-05-12T11:47:50;102306.30;;;23.23;22.71
69219;BME280;56232;53.384;-2.732;2023-05-12T11:50:20;102304.32;;;24.08;22.44
69219;BME280;56232;53.384;-2.732;2023-05-12T11:52:41;102305.49;;;23.80;22.40
69219;BME280;56232;53.384;-2.732;2023-05-12T11:55:08;102307.89;;;23.94;22.53
69219;BME280;56232;53.384;-2.732;2023-05-12T11:57:33;102311.24;;;22.83;22.56
69219;BME280;56232;53.384;-2.732;2023-05-12T12:00:00;102314.20;;;23.31;22.50
69219;BME280;56232;53.384;-2.732;2023-05-12T12:02:23;102313.60;;;23.25;22.76
69219;BME280;56232;53.384;-2.732;2023-05-12T12:04:49;102307.24;;;22.87;22.77
69219;BME280;56232;53.384;-2.732;2023-05-12T12:07:14;102309.62;;;22.86;23.01
69219;BME280;56232;53.384;-2.732;2023-05-12T12:09:40;102302.83;;;22.53;23.16
69219;BME280;56232;53.384;-2.732;2023-05-12T12:12:08;102304.04;;;23.24;22.88
69219;BME280;56232;53.384;-2.732;2023-05-12T12:14:32;102303.94;;;22.75;22.85
69219;BME280;56232;53.384;-2.732;2023-05-12T12:16:57;102304.84;;;22.77;23.32
69219;BME280;56232;53.384;-2.732;2023-05-12T12:19:23;102303.57;;;23.74;23.05
69219;BME280;56232;53.384;-2.732;2023-05-12T12:21:48;102309.39;;;23.93;22.97
69219;BME280;56232;53.384;-2.732;2023-05-12T12:24:13;102306.99;;;24.76;22.62
69219;BME280;56232;53.384;-2.732;2023-05-12T12:26:39;102307.76;;;24.62;22.56
69219;BME280;56232;53.384;-2.732;2023-05-12T12:29:04;102312.67;;;24.26;22.88
69219;BME280;56232;53.384;-2.732;2023-05-12T12:31:30;102314.00;;;23.98;22.98
69219;BME280;56232;53.384;-2.732;2023-05-12T12:33:55;102314.92;;;23.31;23.12